Time;durP1;ratioP1;P1;durP2;ratioP2;P2;SDS_P1;SDS_P2;PMS_P1;PMS_P2;Temp;Humidity;BMP_temperature;BMP_pressure;BME280_temperature;BME280_humidity;BME280_pressure;Samples;Min_cycle;Max_cycle;Signal;HPM_P1;HPM_P2
2022/01/04 00:00:14;;;;;;;;;1.00;0.00;;;;;11.43;89.35;99499.63;5035705;28;45701;-78
2022/01/04 00:02:40;;;;;;;;;0.00;0.00;;;;;11.45;89.16;99494.28;5035809;28;45471;-77
2022/01/04 00:05:06;;;;;;;;;0.75;0.00;;;;;11.43;88.79;99483.75;5036730;28;45416;-78
2022/01/04 00:07:32;;;;;;;;;0.00;0.00;;;;;11.44;89.42;99484.63;5022896;28;45515;-77
2022/01/04 00:09:59;;;;;;;;;0.25;0.25;;;;;11.43;89.14;99473.16;5024816;28;45457;-76
2022/01/04 00:15:08;;;;;;;;;0.75;0.00;;;;;11.36;89.05;99454.06;5017771;28;45394;-76
2022/01/04 00:17:34;;;;;;;;;0.00;0.00;;;;;11.35;89.31;99447.03;5019583;28;45398;-76
2022/01/04 00:20:00;;;;;;;;;0.00;0.00;;;;;11.35;89.33;99443.53;5035405;28;46095;-77
2022/01/04 00:22:25;;;;;;;;;0.00;0.00;;;;;11.35;89.42;99433.81;5034650;28;45405;-76
2022/01/04 00:24:51;;;;;;;;;0.00;0.00;;;;;11.34;89.28;99436.50;5036229;28;45391;-76
2022/01/04 00:27:16;;;;;;;;;0.00;0.00;;;;;11.31;89.25;99426.06;5020261;28;45641;-75
2022/01/04 00:29:42;;;;;;;;;0.00;0.00;;;;;11.32;89.05;99418.06;5028492;28;45361;-75
2022/01/04 00:32:07;;;;;;;;;1.00;1.00;;;;;11.30;89.86;99419.06;5016572;28;45457;-74
2022/01/04 00:34:33;;;;;;;;;0.00;0.00;;;;;11.31;89.56;99399.59;5035704;28;45362;-77
2022/01/04 00:36:58;;;;;;;;;0.00;0.00;;;;;11.29;89.64;99396.16;5025961;28;45437;-76
2022/01/04 00:39:23;;;;;;;;;4.00;4.00;;;;;11.27;90.02;99392.75;5024779;28;46069;-75
2022/01/04 00:41:49;;;;;;;;;1.00;0.00;;;;;11.30;90.10;99379.38;5025706;28;45379;-75
2022/01/04 00:44:14;;;;;;;;;0.00;0.00;;;;;11.29;90.02;99377.66;5035139;28;45488;-76
2022/01/04 00:46:40;;;;;;;;;0.25;0.00;;;;;11.28;90.04;99370.63;5036023;28;45617;-75
2022/01/04 00:49:11;;;;;;;;;0.00;0.00;;;;;11.25;89.89;99369.00;5033887;28;45902;-75
2022/01/04 00:51:55;;;;;;;;;3.75;3.75;;;;;11.26;89.97;99359.28;5027389;28;45450;-77
2022/01/04 00:54:21;;;;;;;;;0.00;0.00;;;;;11.26;90.15;99361.91;5031281;28;45503;-78
2022/01/04 00:56:47;;;;;;;;;1.00;1.00;;;;;11.27;90.02;99350.41;5017173;28;45531;-78
2022/01/04 00:59:14;;;;;;;;;0.25;0.00;;;;;11.28;89.97;99344.19;5016308;28;46216;-79
2022/01/04 01:01:39;;;;;;;;;0.00;0.00;;;;;11.28;89.71;99344.19;5035415;28;45515;-78
2022/01/04 01:04:07;;;;;;;;;0.00;0.00;;;;;11.26;90.08;99327.53;5034816;28;45540;-79
2022/01/04 01:06:32;;;;;;;;;0.00;0.00;;;;;11.28;89.60;99325.66;5029274;28;45640;-78
2022/01/04 01:08:58;;;;;;;;;0.00;0.00;;;;;11.29;89.93;99319.47;5014196;28;45454;-78
2022/01/04 01:11:23;;;;;;;;;0.00;0.00;;;;;11.29;89.94;99308.88;5023359;28;45501;-79
2022/01/04 01:13:49;;;;;;;;;0.00;0.00;;;;;11.28;89.74;99304.50;5036306;28;45766;-79
2022/01/04 01:16:15;;;;;;;;;0.00;0.00;;;;;11.26;89.96;99296.63;5039517;28;45685;-78
2022/01/04 01:18:40;;;;;;;;;0.00;0.00;;;;;11.30;90.00;99297.38;5023126;28;45876;-79
2022/01/04 01:21:07;;;;;;;;;0.00;0.00;;;;;11.30;89.85;99287.66;5032036;28;45444;-79
2022/01/04 01:23:34;;;;;;;;;0.00;0.00;;;;;11.30;89.56;99295.59;5032985;28;46334;-79
2022/01/04 01:26:01;;;;;;;;;0.00;0.00;;;;;11.28;89.72;99284.22;5026421;28;45544;-79
2022/01/04 01:28:26;;;;;;;;;0.00;0.00;;;;;11.29;89.78;99275.34;5023506;28;45540;-78
2022/01/04 01:30:52;;;;;;;;;1.00;1.00;;;;;11.30;89.91;99278.88;5027969;28;45500;-78
2022/01/04 01:33:17;;;;;;;;;0.00;0.00;;;;;11.30;89.63;99270.94;5034745;28;45504;-78
2022/01/04 01:35:43;;;;;;;;;0.00;0.00;;;;;11.31;89.90;99275.28;5043877;28;45437;-78
2022/01/04 01:38:10;;;;;;;;;0.00;0.00;;;;;11.28;89.80;99256.91;5042627;28;45392;-79
2022/01/04 01:40:37;;;;;;;;;0.00;0.00;;;;;11.31;89.91;99257.66;5026330;28;45611;-78
2022/01/04 01:43:03;;;;;;;;;1.75;1.75;;;;;11.32;89.87;99259.34;5023712;28;45434;-78
2022/01/04 01:45:28;;;;;;;;;0.00;0.00;;;;;11.31;89.82;99248.81;5035776;28;45339;-78
2022/01/04 01:47:54;;;;;;;;;0.75;0.75;;;;;11.34;90.01;99243.41;5038488;28;46139;-77
2022/01/04 01:50:20;;;;;;;;;0.00;0.00;;;;;11.33;89.74;99233.78;5035225;28;45341;-78
2022/01/04 01:52:48;;;;;;;;;0.00;0.00;;;;;11.32;89.73;99229.41;5035775;28;45295;-78
2022/01/04 01:55:16;;;;;;;;;2.50;2.50;;;;;11.34;89.22;99219.59;5024796;28;45707;-78
2022/01/04 01:57:41;;;;;;;;;0.00;0.00;;;;;11.33;89.74;99212.59;5017484;28;45471;-78
2022/01/04 02:00:09;;;;;;;;;3.00;3.00;;;;;11.37;89.77;99219.47;5033363;28;45322;-78
2022/01/04 02:02:35;;;;;;;;;0.00;0.00;;;;;11.36;89.89;99212.47;5033688;28;45536;-77
2022/01/04 02:05:00;;;;;;;;;0.00;0.00;;;;;11.39;89.90;99217.63;5014381;28;45307;-78
2022/01/04 02:07:27;;;;;;;;;0.75;0.75;;;;;11.38;89.86;99210.59;5016587;28;45398;-78
2022/01/04 02:10:02;;;;;;;;;0.00;0.00;;;;;11.35;89.94;99203.66;5019671;28;45432;-78
2022/01/04 02:12:29;;;;;;;;;0.00;0.00;;;;;11.39;89.75;99201.75;5029572;28;45515;-78
2022/01/04 02:14:55;;;;;;;;;0.00;0.00;;;;;11.40;90.13;99202.59;5035008;28;45476;-78
2022/01/04 02:17:21;;;;;;;;;5.25;3.75;;;;;11.43;90.05;99191.88;5048041;28;47041;-78
2022/01/04 02:19:46;;;;;;;;;0.00;0.00;;;;;11.38;89.80;99194.72;5035122;28;45395;-79
2022/01/04 02:22:11;;;;;;;;;1.00;1.00;;;;;11.42;90.20;99188.38;5035073;28;45431;-78
2022/01/04 02:24:37;;;;;;;;;0.25;0.25;;;;;11.38;90.11;99176.22;5029055;28;45457;-77
2022/01/04 02:27:03;;;;;;;;;3.25;1.00;;;;;11.38;89.88;99179.69;5025308;28;46212;-78
2022/01/04 02:29:28;;;;;;;;;2.50;2.50;;;;;11.31;89.09;99167.72;5034184;28;45553;-78
2022/01/04 02:31:53;;;;;;;;;3.00;1.50;;;;;11.26;88.32;99163.53;5033450;28;45391;-79
2022/01/04 02:34:19;;;;;;;;;3.25;3.25;;;;;11.22;88.08;99157.56;5030879;28;45475;-77
2022/01/04 02:36:45;;;;;;;;;3.75;3.00;;;;;11.15;87.64;99146.38;5026521;28;45576;-77
2022/01/04 02:39:10;;;;;;;;;7.00;7.00;;;;;11.10;88.11;99145.72;5015343;28;45316;-77
2022/01/04 02:41:36;;;;;;;;;1.00;1.00;;;;;11.03;88.12;99142.47;5032463;28;45512;-77
2022/01/04 02:44:01;;;;;;;;;3.00;3.00;;;;;11.01;88.44;99132.91;5025940;28;45347;-79
2022/01/04 02:46:27;;;;;;;;;3.25;2.00;;;;;10.97;88.06;99136.63;5030187;28;45400;-78
2022/01/04 02:48:52;;;;;;;;;2.50;2.50;;;;;10.92;87.98;99128.03;5031761;28;45450;-78
2022/01/04 02:51:18;;;;;;;;;1.00;1.00;;;;;10.88;88.16;99121.16;5022562;28;45374;-78
2022/01/04 02:53:44;;;;;;;;;4.50;3.75;;;;;10.80;88.21;99118.88;5014053;28;45581;-79
2022/01/04 02:56:11;;;;;;;;;3.00;3.00;;;;;10.73;88.20;99102.41;5017414;28;45569;-79
2022/01/04 02:58:37;;;;;;;;;9.25;6.50;;;;;10.68;88.33;99114.97;5026934;28;45369;-78
2022/01/04 03:01:04;;;;;;;;;5.00;3.00;;;;;10.57;87.94;99096.09;5028599;28;45445;-78
2022/01/04 03:03:30;;;;;;;;;1.00;1.00;;;;;10.46;88.26;99094.78;5032269;28;45394;-78
2022/01/04 03:05:56;;;;;;;;;1.00;1.00;;;;;10.45;88.43;99098.31;5023817;28;46322;-78
2022/01/04 03:08:22;;;;;;;;;1.50;1.50;;;;;10.37;88.39;99089.88;5018775;28;45423;-76
2022/01/04 03:10:49;;;;;;;;;5.50;3.75;;;;;10.29;88.62;99076.09;5014250;28;45476;-76
2022/01/04 03:13:16;;;;;;;;;2.00;1.00;;;;;10.26;88.55;99086.78;5026513;28;45431;-77
2022/01/04 03:15:42;;;;;;;;;2.00;1.00;;;;;10.21;88.34;99083.50;5033587;28;45431;-77
2022/01/04 03:18:09;;;;;;;;;1.00;1.00;;;;;10.10;87.99;99076.03;5030240;28;45494;-77
2022/01/04 03:20:35;;;;;;;;;0.75;0.75;;;;;10.08;88.57;99073.44;5023088;28;45350;-77
2022/01/04 03:23:00;;;;;;;;;12.00;9.25;;;;;10.06;88.76;99070.00;5020678;28;45515;-79
2022/01/04 03:25:26;;;;;;;;;0.75;0.75;;;;;10.00;88.31;99070.25;5023085;28;46285;-78
2022/01/04 03:27:52;;;;;;;;;22.50;20.50;;;;;9.94;88.79;99063.47;5036304;28;45536;-78
2022/01/04 03:30:17;;;;;;;;;64.25;56.75;;;;;9.89;88.78;99056.66;5037052;28;45473;-78
2022/01/04 03:32:42;;;;;;;;;37.25;35.50;;;;;9.86;89.21;99051.50;5032032;28;45363;-78
2022/01/04 03:35:08;;;;;;;;;3.00;1.00;;;;;9.88;88.91;99049.66;5035171;28;46297;-78
2022/01/04 03:37:33;;;;;;;;;6.00;5.50;;;;;9.82;89.47;99049.91;5034247;28;45558;-78
2022/01/04 03:39:59;;;;;;;;;9.50;9.50;;;;;9.76;89.55;99036.06;5034980;28;45519;-78
2022/01/04 03:42:24;;;;;;;;;49.25;47.00;;;;;9.66;89.35;99028.59;5022424;28;45477;-77
2022/01/04 03:44:50;;;;;;;;;0.00;0.00;;;;;9.66;89.25;99034.69;5016743;28;45479;-78
2022/01/04 03:47:15;;;;;;;;;1.00;1.00;;;;;9.59;89.34;99033.22;5016935;28;45825;-78
2022/01/04 03:49:40;;;;;;;;;0.00;0.00;;;;;9.53;89.18;99034.31;5038349;28;45334;-77
2022/01/04 03:52:06;;;;;;;;;6.00;3.00;;;;;9.42;88.91;99037.41;5054678;28;45335;-79
2022/01/04 03:54:31;;;;;;;;;0.00;0.00;;;;;9.33;89.01;99026.38;5037999;28;46308;-79
2022/01/04 03:56:57;;;;;;;;;0.00;0.00;;;;;9.28;89.44;99029.19;5028846;28;45572;-78
2022/01/04 03:59:22;;;;;;;;;3.75;0.75;;;;;9.26;89.58;99031.00;5036343;28;45324;-78
2022/01/04 04:01:48;;;;;;;;;1.50;1.50;;;;;9.22;89.38;99034.69;5036410;28;45355;-78
2022/01/04 04:04:13;;;;;;;;;0.75;0.75;;;;;9.21;89.75;99043.50;5035803;28;45377;-78
2022/01/04 04:06:39;;;;;;;;;2.50;0.00;;;;;9.23;90.06;99031.13;5014748;28;45392;-77
2022/01/04 04:09:05;;;;;;;;;0.00;0.00;;;;;9.17;90.01;99044.53;5036901;28;45331;-77
2022/01/04 04:11:30;;;;;;;;;0.00;0.00;;;;;9.14;90.10;99048.19;5036801;28;45260;-78
2022/01/04 04:13:55;;;;;;;;;0.00;0.00;;;;;9.13;89.80;99040.31;5038006;28;45578;-78
2022/01/04 04:16:21;;;;;;;;;1.00;1.00;;;;;9.10;89.84;99037.81;5045258;28;45472;-77
2022/01/04 04:18:46;;;;;;;;;0.00;0.00;;;;;9.09;89.71;99041.34;5037923;28;45467;-78
2022/01/04 04:21:12;;;;;;;;;0.00;0.00;;;;;9.07;89.22;99041.41;5039787;28;45489;-78
2022/01/04 04:23:37;;;;;;;;;4.00;4.00;;;;;9.06;89.46;99051.09;5036404;28;46099;-78
2022/01/04 04:26:04;;;;;;;;;0.00;0.00;;;;;8.98;89.00;99047.03;5028770;28;45350;-78
2022/01/04 04:28:29;;;;;;;;;0.00;0.00;;;;;8.88;88.93;99043.88;5028591;28;45445;-78
2022/01/04 04:30:56;;;;;;;;;0.00;0.00;;;;;8.91;89.64;99051.66;5036039;28;45414;-77
2022/01/04 04:33:22;;;;;;;;;1.50;1.50;;;;;8.84;89.72;99051.03;5035587;28;45381;-77
2022/01/04 04:35:47;;;;;;;;;7.25;7.25;;;;;8.84;90.04;99055.47;5034493;28;45457;-78
2022/01/04 04:38:12;;;;;;;;;0.00;0.00;;;;;8.85;90.41;99062.44;5034808;28;45377;-78
2022/01/04 04:40:38;;;;;;;;;0.75;0.75;;;;;8.82;90.29;99058.16;5033954;28;45332;-78
2022/01/04 04:43:03;;;;;;;;;0.00;0.00;;;;;8.87;90.80;99047.44;5035609;28;45565;-79
2022/01/04 04:45:29;;;;;;;;;3.00;3.00;;;;;8.85;90.32;99052.75;5033970;28;45582;-78
2022/01/04 04:47:54;;;;;;;;;0.00;0.00;;;;;8.84;90.68;99061.56;5034310;28;45483;-78
2022/01/04 04:50:19;;;;;;;;;0.00;0.00;;;;;8.85;90.38;99063.31;5036701;28;45342;-78
2022/01/04 04:52:45;;;;;;;;;0.00;0.00;;;;;8.86;89.97;99069.44;5033204;28;45464;-76
2022/01/04 04:55:10;;;;;;;;;0.00;0.00;;;;;8.84;89.70;99055.47;5020635;28;45584;-78
2022/01/04 04:57:38;;;;;;;;;1.00;0.25;;;;;8.75;89.33;99072.44;5034986;28;45394;-79
2022/01/04 05:00:04;;;;;;;;;0.00;0.00;;;;;8.73;89.50;99076.94;5036467;28;45433;-78
2022/01/04 05:02:30;;;;;;;;;2.50;2.50;;;;;8.75;89.14;99076.88;5025005;28;46090;-78
2022/01/04 05:04:55;;;;;;;;;1.00;1.00;;;;;8.80;89.60;99075.75;5034396;28;45425;-78
2022/01/04 05:07:21;;;;;;;;;0.00;0.00;;;;;8.74;89.65;99067.25;5031591;28;45453;-78
2022/01/04 05:09:46;;;;;;;;;11.00;6.50;;;;;8.70;89.65;99072.63;5015768;28;45524;-77
2022/01/04 05:12:12;;;;;;;;;0.00;0.00;;;;;8.60;89.56;99058.06;5016558;28;45407;-77
2022/01/04 05:14:39;;;;;;;;;0.00;0.00;;;;;8.55;89.56;99075.81;5034989;28;45361;-78
2022/01/04 05:17:04;;;;;;;;;2.00;2.00;;;;;8.53;89.51;99088.16;5035206;28;45414;-78
2022/01/04 05:19:30;;;;;;;;;0.00;0.00;;;;;8.54;89.87;99081.97;5033952;28;45426;-78
2022/01/04 05:21:55;;;;;;;;;3.25;3.25;;;;;8.51;90.05;99085.56;5050638;28;45973;-79
2022/01/04 05:24:20;;;;;;;;;0.00;0.00;;;;;8.55;90.16;99094.25;5032724;28;55479;-77
2022/01/04 05:26:46;;;;;;;;;0.00;0.00;;;;;8.53;89.77;99088.16;5024520;28;45497;-78
2022/01/04 05:29:11;;;;;;;;;0.25;0.25;;;;;8.61;89.76;99101.94;5034798;28;45481;-78
2022/01/04 05:31:36;;;;;;;;;0.00;0.00;;;;;8.55;88.78;99091.59;5036346;28;45626;-79
2022/01/04 05:34:02;;;;;;;;;0.00;0.00;;;;;8.55;89.43;99094.25;5035205;28;45538;-78
2022/01/04 05:36:27;;;;;;;;;0.00;0.00;;;;;8.51;89.28;99090.84;5028199;28;45594;-78
2022/01/04 05:38:52;;;;;;;;;0.00;0.00;;;;;8.52;89.57;99086.44;5020486;28;45488;-78
2022/01/04 05:41:18;;;;;;;;;0.00;0.00;;;;;8.55;89.22;99088.97;5016391;28;45335;-78
2022/01/04 05:43:43;;;;;;;;;0.00;0.00;;;;;8.56;89.14;99093.31;5029322;28;45411;-78
2022/01/04 05:46:08;;;;;;;;;0.25;0.25;;;;;8.52;88.96;99092.56;5033889;28;45393;-77
2022/01/04 05:48:34;;;;;;;;;0.00;0.00;;;;;8.52;88.34;99096.97;5033256;28;45548;-79
2022/01/04 05:50:59;;;;;;;;;0.25;0.00;;;;;8.50;88.75;99083.00;5014371;28;45876;-78
2022/01/04 05:53:25;;;;;;;;;0.00;0.00;;;;;8.49;88.14;99081.28;5035682;28;45516;-79
2022/01/04 05:55:50;;;;;;;;;0.00;0.00;;;;;8.53;88.11;99096.06;5020751;28;45844;-79
2022/01/04 05:58:16;;;;;;;;;0.25;0.25;;;;;8.55;87.93;99096.88;5014705;28;45525;-78
2022/01/04 06:00:42;;;;;;;;;1.00;0.00;;;;;8.55;88.04;99102.16;5020971;28;45870;-75
2022/01/04 06:03:07;;;;;;;;;1.00;1.00;;;;;8.53;87.84;99088.16;5034023;28;45514;-75
2022/01/04 06:05:33;;;;;;;;;0.00;0.00;;;;;8.53;87.79;99094.31;5032706;28;45362;-75
2022/01/04 06:07:58;;;;;;;;;0.25;0.25;;;;;8.49;88.04;99087.41;5027194;28;45427;-76
2022/01/04 06:10:24;;;;;;;;;1.00;1.00;;;;;8.55;87.44;99096.88;5015765;28;46139;-76
2022/01/04 06:15:16;;;;;;;;;1.50;1.50;;;;;8.56;86.89;99085.41;5034219;28;45865;-75
2022/01/04 06:17:43;;;;;;;;;2.50;0.00;;;;;8.58;86.74;99085.34;5029154;28;45518;-75
2022/01/04 06:20:13;;;;;;;;;0.00;0.00;;;;;8.56;86.94;99088.03;5034062;28;46165;-76
2022/01/04 06:22:39;;;;;;;;;3.00;1.00;;;;;8.59;86.79;99097.63;5032970;28;45307;-76
2022/01/04 06:25:08;;;;;;;;;0.00;0.00;;;;;8.56;87.20;99093.31;5033829;28;45477;-76
2022/01/04 06:27:34;;;;;;;;;0.00;0.00;;;;;8.55;87.15;99102.16;5032817;28;45695;-76
2022/01/04 06:30:00;;;;;;;;;1.00;0.00;;;;;8.58;87.81;99115.19;5034011;28;46258;-76
2022/01/04 06:32:26;;;;;;;;;3.00;3.00;;;;;8.54;86.13;99116.22;5031613;28;45464;-76
2022/01/04 06:34:51;;;;;;;;;0.00;0.00;;;;;8.57;86.41;99126.63;5034617;28;45541;-76
2022/01/04 06:37:17;;;;;;;;;0.00;0.00;;;;;8.54;86.22;99116.22;5030991;28;45678;-76
2022/01/04 06:39:44;;;;;;;;;0.25;0.25;;;;;8.54;85.52;99105.69;5018304;28;48426;-76
2022/01/04 06:42:11;;;;;;;;;0.00;0.00;;;;;8.57;85.23;99125.78;5029858;28;45384;-76
2022/01/04 06:44:37;;;;;;;;;3.75;3.75;;;;;8.56;84.69;99130.19;5033483;28;45441;-78
2022/01/04 06:47:03;;;;;;;;;0.00;0.00;;;;;8.55;85.66;99141.66;5026146;28;45438;-75
2022/01/04 06:49:28;;;;;;;;;1.00;0.00;;;;;8.57;85.19;99137.19;5033824;28;46458;-75
2022/01/04 06:51:54;;;;;;;;;0.00;0.00;;;;;8.56;84.81;99129.34;5033554;28;45346;-76
2022/01/04 06:54:20;;;;;;;;;1.75;0.00;;;;;8.55;86.12;99139.00;5037824;28;45413;-75
2022/01/04 06:56:46;;;;;;;;;0.00;0.00;;;;;8.57;85.95;99146.88;5018052;28;45448;-76
2022/01/04 06:59:12;;;;;;;;;1.00;1.00;;;;;8.60;86.14;99157.28;5031291;28;45478;-75
2022/01/04 07:01:38;;;;;;;;;0.00;0.00;;;;;8.60;86.50;99155.50;5031606;28;45484;-74
2022/01/04 07:04:04;;;;;;;;;0.00;0.00;;;;;8.62;85.97;99173.88;5034703;28;45480;-75
2022/01/04 07:06:31;;;;;;;;;0.00;0.00;;;;;8.60;85.24;99173.94;5036924;28;45389;-76
2022/01/04 07:08:57;;;;;;;;;0.00;0.00;;;;;8.58;85.09;99162.59;5036591;28;45455;-75
2022/01/04 07:11:23;;;;;;;;;0.00;0.00;;;;;8.58;84.33;99165.25;5033410;28;45428;-76
2022/01/04 07:13:49;;;;;;;;;3.00;3.00;;;;;8.59;85.10;99166.94;5049630;28;45646;-73
2022/01/04 07:16:15;;;;;;;;;1.50;0.25;;;;;8.56;85.30;99153.88;5017483;28;45458;-77
2022/01/04 07:18:41;;;;;;;;;3.00;0.00;;;;;8.59;84.77;99161.69;5029645;28;45914;-77
2022/01/04 07:21:06;;;;;;;;;1.00;0.00;;;;;8.57;84.18;99163.50;5018259;28;45421;-75
2022/01/04 07:23:32;;;;;;;;;0.00;0.00;;;;;8.54;83.86;99161.84;5025097;28;45607;-76
2022/01/04 07:25:57;;;;;;;;;3.00;3.00;;;;;8.55;84.05;99162.72;5022029;28;45361;-75
2022/01/04 07:28:23;;;;;;;;;1.00;1.00;;;;;8.59;84.11;99160.81;5037064;28;45379;-75
2022/01/04 07:30:49;;;;;;;;;0.00;0.00;;;;;8.58;85.29;99170.50;5036894;28;45524;-76
2022/01/04 07:33:17;;;;;;;;;1.00;1.00;;;;;8.54;85.06;99169.72;5032776;28;45488;-76
2022/01/04 07:35:43;;;;;;;;;1.00;1.00;;;;;8.59;85.09;99179.25;5035334;28;45499;-75
2022/01/04 07:38:08;;;;;;;;;4.00;4.00;;;;;8.55;85.44;99183.78;5028940;28;45506;-76
2022/01/04 07:40:34;;;;;;;;;2.75;2.75;;;;;8.56;84.76;99187.28;5030642;28;45437;-75
2022/01/04 07:43:00;;;;;;;;;4.00;2.00;;;;;8.56;84.98;99193.38;5019847;28;45711;-75
2022/01/04 07:45:32;;;;;;;;;1.00;1.00;;;;;8.59;85.46;99193.28;5022001;28;45409;-76
2022/01/04 07:47:59;;;;;;;;;4.50;4.50;;;;;8.58;84.71;99198.59;5035598;28;46325;-76
2022/01/04 07:50:26;;;;;;;;;3.00;3.00;;;;;8.59;84.87;99203.81;5028111;28;45491;-76
2022/01/04 07:52:51;;;;;;;;;9.25;9.25;;;;;8.59;85.02;99211.72;5016845;28;45734;-76
2022/01/04 07:55:17;;;;;;;;;5.00;5.00;;;;;8.59;84.49;99214.34;5024629;28;45693;-76
2022/01/04 07:57:44;;;;;;;;;2.50;1.00;;;;;8.59;84.62;99214.34;5019828;28;45400;-76
2022/01/04 08:00:12;;;;;;;;;0.75;0.75;;;;;8.60;84.29;99224.00;5030198;28;45452;-76
2022/01/04 08:02:38;;;;;;;;;0.00;0.00;;;;;8.59;83.63;99224.03;5034824;28;45544;-76
2022/01/04 08:05:04;;;;;;;;;0.00;0.00;;;;;8.63;83.58;99247.59;5031129;28;45625;-75
2022/01/04 08:07:30;;;;;;;;;0.25;0.25;;;;;8.61;83.69;99257.31;5019807;28;46280;-76
2022/01/04 08:09:56;;;;;;;;;0.00;0.00;;;;;8.62;83.67;99250.28;5026610;28;45509;-76
2022/01/04 08:12:22;;;;;;;;;3.25;1.00;;;;;8.65;84.00;99264.19;5026176;28;45595;-75
2022/01/04 08:14:48;;;;;;;;;0.75;0.75;;;;;8.61;83.53;99257.31;5027447;28;45409;-76
2022/01/04 08:17:14;;;;;;;;;0.00;0.00;;;;;8.62;83.00;99277.47;5034445;28;45508;-75
2022/01/04 08:19:39;;;;;;;;;2.50;2.50;;;;;8.62;83.14;99277.47;5034612;28;45559;-77
2022/01/04 08:22:05;;;;;;;;;0.25;0.25;;;;;8.68;83.31;99284.31;5024469;28;45411;-76
2022/01/04 08:24:30;;;;;;;;;6.00;6.00;;;;;8.64;83.62;99285.31;5033840;28;45411;-76
2022/01/04 08:26:55;;;;;;;;;1.00;1.00;;;;;8.68;83.56;99277.28;5028838;28;46098;-77
2022/01/04 08:29:21;;;;;;;;;0.00;0.00;;;;;8.66;83.30;99263.28;5037469;28;45504;-76
2022/01/04 08:31:46;;;;;;;;;1.00;1.00;;;;;8.68;83.45;99256.22;5037362;28;45278;-77
2022/01/04 08:34:12;;;;;;;;;0.75;0.00;;;;;8.72;82.71;99267.50;5032111;28;45445;-74
2022/01/04 08:36:38;;;;;;;;;0.00;0.00;;;;;8.71;82.93;99274.56;5016130;28;46079;-74
2022/01/04 08:39:05;;;;;;;;;1.50;0.25;;;;;8.77;83.01;99296.34;5032907;28;45377;-75
2022/01/04 08:41:30;;;;;;;;;0.00;0.00;;;;;8.76;82.62;99286.69;5029614;28;45456;-75
2022/01/04 08:43:55;;;;;;;;;1.00;1.00;;;;;8.80;82.52;99301.50;5031998;28;45579;-76
2022/01/04 08:46:22;;;;;;;;;3.00;3.00;;;;;8.82;82.33;99294.41;5034151;28;45496;-75
2022/01/04 08:48:48;;;;;;;;;3.75;2.50;;;;;8.82;82.36;99299.66;5022859;28;45515;-75
2022/01/04 08:51:13;;;;;;;;;0.00;0.00;;;;;8.79;81.82;99299.75;5034010;28;45398;-75
2022/01/04 08:53:38;;;;;;;;;3.00;3.00;;;;;8.79;82.37;99305.03;5034807;28;45382;-76
2022/01/04 08:56:04;;;;;;;;;0.00;0.00;;;;;8.77;81.96;99306.88;5036000;28;46109;-75
2022/01/04 08:58:30;;;;;;;;;0.00;0.00;;;;;8.78;82.44;99309.44;5023167;28;45579;-75
2022/01/04 09:00:56;;;;;;;;;3.00;1.00;;;;;8.78;83.23;99305.97;5033755;28;45490;-75
2022/01/04 09:03:24;;;;;;;;;0.00;0.00;;;;;8.75;82.62;99295.53;5031645;28;45488;-75
2022/01/04 09:05:49;;;;;;;;;0.50;0.50;;;;;8.75;83.29;99303.44;5029903;28;46838;-75
2022/01/04 09:08:15;;;;;;;;;0.50;0.50;;;;;8.74;83.06;99314.88;5015080;28;45351;-75
2022/01/04 09:10:40;;;;;;;;;0.75;0.00;;;;;8.76;82.48;99323.56;5027358;28;45443;-75
2022/01/04 09:13:12;;;;;;;;;0.00;0.00;;;;;8.74;83.29;99307.81;5033812;28;45381;-75
2022/01/04 09:20:50;;;;;;;;;2.50;2.50;;;;;8.80;82.46;99328.69;5034960;28;45441;-75
2022/01/04 09:23:21;;;;;;;;;0.00;0.00;;;;;8.80;83.04;99327.84;5034325;28;45568;-74
2022/01/04 09:25:52;;;;;;;;;0.00;0.00;;;;;8.81;83.46;99324.31;5034154;28;47056;-75
2022/01/04 09:28:19;;;;;;;;;3.50;3.00;;;;;8.81;82.92;99321.69;5034444;28;45346;-74
2022/01/04 09:30:48;;;;;;;;;0.00;0.00;;;;;8.81;82.99;99319.03;5036759;28;45368;-75
2022/01/04 09:33:14;;;;;;;;;1.50;1.50;;;;;8.84;83.37;99321.56;5038914;28;45552;-75
2022/01/04 09:35:41;;;;;;;;;1.00;1.00;;;;;8.84;83.58;99317.16;5028648;28;46153;-75
2022/01/04 09:38:07;;;;;;;;;23.50;23.50;;;;;8.86;83.08;99319.75;5023114;28;45529;-75
2022/01/04 09:40:35;;;;;;;;;1.00;0.00;;;;;8.86;82.90;99311.84;5027416;28;45516;-74
2022/01/04 09:43:05;;;;;;;;;0.50;0.50;;;;;8.87;82.84;99310.94;5018342;28;45612;-76
2022/01/04 09:45:31;;;;;;;;;5.00;5.00;;;;;8.87;82.83;99303.88;5017452;28;46898;-73
2022/01/04 09:47:57;;;;;;;;;1.00;1.00;;;;;8.88;82.15;99299.47;5030914;28;45468;-75
2022/01/04 09:50:23;;;;;;;;;6.50;6.50;;;;;8.93;83.30;99328.28;5032540;28;45446;-76
2022/01/04 09:52:49;;;;;;;;;1.00;1.00;;;;;8.91;83.12;99328.34;5022833;28;45591;-76
2022/01/04 09:55:16;;;;;;;;;0.75;0.75;;;;;8.95;82.49;99337.03;5028843;28;46301;-76
2022/01/04 09:57:45;;;;;;;;;3.75;3.75;;;;;8.94;82.19;99341.41;5028311;28;45461;-76
2022/01/04 10:00:14;;;;;;;;;1.00;0.00;;;;;8.91;82.58;99336.25;5024942;28;45568;-77
2022/01/04 10:02:41;;;;;;;;;1.00;1.00;;;;;8.92;82.31;99343.25;5024119;28;45480;-76
2022/01/04 10:05:17;;;;;;;;;4.50;3.50;;;;;8.95;82.46;99348.41;5029559;28;46270;-75
2022/01/04 10:07:44;;;;;;;;;5.00;3.00;;;;;8.98;82.39;99347.47;5021879;28;45460;-74
2022/01/04 10:10:12;;;;;;;;;0.75;0.75;;;;;8.96;82.72;99350.16;5025400;28;45586;-76
2022/01/04 10:12:52;;;;;;;;;3.00;3.00;;;;;9.01;82.41;99364.03;5026311;28;45497;-75
2022/01/04 10:15:35;;;;;;;;;3.00;3.00;;;;;9.03;83.21;99370.13;5022307;28;45526;-74
2022/01/04 10:18:20;;;;;;;;;0.25;0.25;;;;;9.00;82.36;99367.59;5026192;28;45541;-74
2022/01/04 10:20:47;;;;;;;;;5.00;0.50;;;;;9.07;82.21;99374.38;5026417;28;45556;-75
2022/01/04 10:23:18;;;;;;;;;3.00;3.00;;;;;9.07;81.82;99369.09;5020531;28;45565;-76
2022/01/04 10:25:47;;;;;;;;;1.50;0.00;;;;;9.11;81.99;99369.88;5029538;28;46430;-74
2022/01/04 10:28:27;;;;;;;;;18.00;18.00;;;;;9.16;81.78;99364.47;5027977;28;45580;-76
2022/01/04 10:30:52;;;;;;;;;0.00;0.00;;;;;9.18;81.60;99354.72;5028617;28;45671;-75
2022/01/04 10:33:22;;;;;;;;;5.00;5.00;;;;;9.20;81.72;99358.16;5026860;28;45434;-76
2022/01/04 10:35:55;;;;;;;;;0.50;0.25;;;;;9.25;81.27;99357.09;5029360;28;45534;-75
2022/01/04 10:38:30;;;;;;;;;3.00;1.00;;;;;9.28;81.23;99361.41;5025836;28;45708;-75
2022/01/04 10:41:03;;;;;;;;;3.25;0.50;;;;;9.34;80.82;99355.91;5031409;28;45430;-74
2022/01/04 10:43:31;;;;;;;;;0.00;0.00;;;;;9.37;81.12;99342.63;5021961;28;45458;-75
2022/01/04 10:45:58;;;;;;;;;0.25;0.25;;;;;9.34;80.62;99324.28;5037535;28;45940;-75
2022/01/04 10:48:30;;;;;;;;;5.00;4.25;;;;;9.41;80.34;99323.16;5026323;28;45459;-74
2022/01/04 10:51:04;;;;;;;;;0.50;0.50;;;;;9.45;81.07;99341.50;5034362;28;45486;-75
2022/01/04 10:53:32;;;;;;;;;1.75;0.50;;;;;9.54;81.05;99349.94;5027938;28;45468;-75
2022/01/04 10:56:03;;;;;;;;;1.00;1.00;;;;;9.58;81.05;99353.31;5017613;28;46077;-76
2022/01/04 10:58:46;;;;;;;;;2.25;2.25;;;;;9.61;80.91;99353.25;5035003;28;45493;-76
2022/01/04 11:01:15;;;;;;;;;1.00;0.00;;;;;9.59;79.94;99345.34;5029086;28;45472;-77
2022/01/04 11:03:45;;;;;;;;;7.00;7.00;;;;;9.59;79.71;99348.00;5033435;28;45612;-77
2022/01/04 11:06:12;;;;;;;;;0.00;0.00;;;;;9.58;80.11;99345.41;5021672;28;46750;-77
2022/01/04 11:08:39;;;;;;;;;1.00;0.00;;;;;9.60;80.47;99343.59;5028897;28;45429;-77
2022/01/04 11:11:05;;;;;;;;;1.75;0.00;;;;;9.59;80.37;99339.22;5028768;28;45292;-76
2022/01/04 11:13:31;;;;;;;;;0.50;0.50;;;;;9.59;80.20;99331.31;5030943;28;45468;-76
2022/01/04 11:15:57;;;;;;;;;1.00;1.00;;;;;9.62;79.54;99333.84;5033847;28;45925;-78
2022/01/04 11:18:23;;;;;;;;;2.50;2.50;;;;;9.61;80.24;99342.69;5028283;28;45584;-79
2022/01/04 11:20:50;;;;;;;;;0.00;0.00;;;;;9.61;80.08;99332.16;5028709;28;45436;-78
2022/01/04 11:23:16;;;;;;;;;1.00;1.00;;;;;9.66;80.24;99351.28;5029437;28;45574;-78
2022/01/04 11:25:44;;;;;;;;;0.00;0.00;;;;;9.61;79.79;99342.69;5030729;28;46158;-77
2022/01/04 11:28:12;;;;;;;;;1.75;1.75;;;;;9.64;80.41;99347.88;5025542;28;45512;-78
2022/01/04 11:30:56;;;;;;;;;0.00;0.00;;;;;9.65;79.48;99343.44;5025335;28;45574;-78
2022/01/04 11:33:44;;;;;;;;;1.50;1.50;;;;;9.64;79.82;99346.97;5035328;28;45539;-77
2022/01/04 11:36:13;;;;;;;;;1.00;1.00;;;;;9.66;80.13;99343.38;5030405;28;45492;-78
2022/01/04 11:38:39;;;;;;;;;2.25;0.50;;;;;9.73;80.09;99350.16;5027004;28;45443;-78
2022/01/04 11:41:05;;;;;;;;;0.00;0.00;;;;;9.76;79.55;99347.41;5023445;28;45466;-82
2022/01/04 11:43:32;;;;;;;;;2.25;2.25;;;;;9.78;79.73;99348.22;5029421;28;45503;-78
2022/01/04 11:45:58;;;;;;;;;0.00;0.00;;;;;9.81;79.66;99349.00;5017210;28;45370;-79